Nearby METAR Reports

 

ENCN - Kristiansand/Kje, Norway
Distance from station: N 17km
Ultima actualizare: 06/12/2022 04:50
Acoperit cu nori
Acoperit cu nori
 Vânt dela ENE
Vântul: ENE 13 km/h
Temperatura: -4°C
Wind Chill: -9°C
Punct de rouă: -5°C
Umiditate: 93%
Barometru: 1018 hPa
Clouds: Acoperit cu nori
Visibility: 10 km
Cloud details: Acoperit cu nori 1737 m
2022/12/06 03:50 ENCN 060350Z AUTO 06007KT 9999 OVC057/// M04/M05 Q1018
EKSN - Sindal Airport, Denmark
Distance from station: ESE 145km
Ultima actualizare: 30/12/2021 14:50
NOT Current
Mist, In mare parte înorat
Mist, In mare parte înorat
 Vânt dela SV
Vântul: SV 26 km/h
Temperatura: 7°C
Wind Chill: 3°C
Punct de rouă: 7°C
Umiditate: 100%
Barometru: 999 hPa
Sumar: Mist
Clouds: In mare parte înorat
Visibility: 5 km
Cloud details: Parțial înorat 183 m
In mare parte înorat 244 m
2021/12/30 13:50 EKSN 301350Z 23014KT 4500 BR SCT006 BKN008 07/07 Q0999
 
EKYT - Alborg, Denmark
Distance from station: SE 153km
Ultima actualizare: 06/12/2022 04:50
Acoperit cu nori
Acoperit cu nori
 Vânt dela ENE
Vântul: ENE 6 km/h
Temperatura: 1°C
Punct de rouă: -1°C
Umiditate: 87%
Barometru: 1018 hPa
Clouds: Acoperit cu nori
Visibility: 10 km
Cloud details: Acoperit cu nori 884 m
2022/12/06 03:50 EKYT 060350Z AUTO 07003KT 9999 OVC029/// 01/M01 Q1018
ENSN - Skien/Geiterygge, Norway
Distance from station: NE 153km
Ultima actualizare: 09/11/2015 09:50
NOT Current
Senin
Senin
 Vânt dela SSV
Vântul: SSV 19 km/h, Vânt în rafale: 41 km/h
Temperatura: 7°C
Wind Chill: 4°C
Punct de rouă: 3°C
Umiditate: 76%
Barometru: 1000 hPa
Sumar: Senin
Visibility: greater than 10 km
2015/11/09 08:50 ENSN 090850Z 20010G22KT 150V240 CAVOK 07/03 Q1000
 
ENZV - Stavanger/Sola(A, Norway
Distance from station: NV 166km
Ultima actualizare: 06/12/2022 04:50
Acoperit cu nori
Acoperit cu nori
 Vânt dela varies
Vântul: varies 2 km/h
Temperatura: 0°C
Punct de rouă: -1°C
Umiditate: 93%
Barometru: 1019 hPa
Clouds: Acoperit cu nori
Visibility: 10 km
Cloud details: In mare parte înorat 274 m
Acoperit cu nori 3962 m
2022/12/06 03:50 ENZV 060350Z VRB01KT 9999 BKN009 OVC130 M00/M01 Q1019
ENNO - Notodden, Norway
Distance from station: NNE 182km
Ultima actualizare: 05/12/2022 18:50
NOT Current
Senin
Senin
 Vânt dela VNV
Vântul: VNV 4 km/h
Temperatura: -7°C
Punct de rouă: -10°C
Umiditate: 79%
Barometru: 1026 hPa
Sumar: Senin
Visibility: greater than 10 km
2022/12/05 17:50 ENNO 051750Z 30002KT CAVOK M07/M10 Q1026
 
ENTO - Torp (civ/Nor-Af, Norway
Distance from station: NE 183km
Ultima actualizare: 06/12/2022 04:50
Parțial înorat
Parțial înorat
 Vânt dela N
Vântul: N 13 km/h
Temperatura: -6°C
Wind Chill: -12°C
Punct de rouă: -7°C
Umiditate: 93%
Barometru: 1018 hPa
Clouds: Parțial înorat
Visibility: 10 km
Cloud details: Parțial înorat 5791 m
2022/12/06 03:50 ENTO 060350Z AUTO 36007KT 9999 SCT190/// M06/M07 Q1018
EKKA - Karup (dan-Afb), Denmark
Distance from station: SSE 209km
Ultima actualizare: 06/12/2022 05:09
Acoperit cu nori
Acoperit cu nori
 Vânt dela NV
Vântul: NV 6 km/h
Temperatura: 0°C
Punct de rouă: 0°C
Umiditate: 100%
Barometru: 1018 hPa
Clouds: Acoperit cu nori
Visibility: 10 km
Cloud details: Acoperit cu nori 853 m
2022/12/06 04:09 EKKA 060409Z AUTO 32003KT 9999 OVC028/// 00/00 Q1018
 
ENHD - Haugesund/Karmoy, Norway
Distance from station: NV 216km
Ultima actualizare: 06/12/2022 04:50
Few Clouds
Few Clouds
 Vânt dela N
Vântul: N 24 km/h
Temperatura: 3°C
Wind Chill: -2°C
Punct de rouă: 1°C
Umiditate: 87%
Barometru: 1019 hPa
Clouds: Few Clouds
Visibility: 10 km
Cloud details: Few Clouds 305 m
2022/12/06 03:50 ENHD 060350Z AUTO 01013KT 9999 FEW010/// 03/01 Q1019
ENRY - Rygge (nor-Afb), Norway
Distance from station: NE 216km
Ultima actualizare: 06/12/2022 04:50
Senin
Senin
 Vânt dela N
Vântul: N 7 km/h
Temperatura: -6°C
Wind Chill: -10°C
Punct de rouă: -8°C
Umiditate: 86%
Barometru: 1019 hPa
Clouds: Senin
Visibility: 10 km
2022/12/06 03:50 ENRY 060350Z AUTO 36004KT 9999NDV NCD M06/M08 Q1019
 
ESGP - Goteborg/Save (a, Sweden
Distance from station: E 230km
Ultima actualizare: 06/12/2022 04:50
Senin
Senin
 Vânt dela N
Vântul: N 7 km/h
Temperatura: -3°C
Wind Chill: -6°C
Punct de rouă: -5°C
Umiditate: 86%
Barometru: 1018 hPa
Clouds: Senin
Visibility: 10 km
2022/12/06 03:50 ESGP 060350Z AUTO 35004KT 9999 NCD M03/M05 Q1018
EKVJ - Stauning Airport, Denmark
Distance from station: S 233km
Ultima actualizare: 05/12/2022 15:50
NOT Current
In mare parte înorat
In mare parte înorat
 Vânt dela NE
Vântul: NE 19 km/h
Temperatura: 3°C
Wind Chill: -2°C
Punct de rouă: 1°C
Umiditate: 87%
Barometru: 1022 hPa
Clouds: In mare parte înorat
Visibility: 10 km
Cloud details: In mare parte înorat 305 m
2022/12/05 14:50 EKVJ 051450Z 05010KT 9999 BKN010 03/01 Q1022
 
ENSO - Stord/Soerstokke, Norway
Distance from station: NV 246km
Ultima actualizare: 05/12/2022 17:50
NOT Current
In mare parte înorat
In mare parte înorat
 Vânt dela S
Vântul: S 6 km/h
Temperatura: 2°C
Punct de rouă: 1°C
Umiditate: 93%
Barometru: 1026 hPa
Clouds: In mare parte înorat
Visibility: 10 km
Cloud details: In mare parte înorat 914 m
2022/12/05 16:50 ENSO 051650Z 17003KT 9999 BKN030 02/01 Q1026
EKAH - Tirstrup (civ/Mi, Denmark
Distance from station: SE 252km
Ultima actualizare: 06/12/2022 04:50
In mare parte înorat
In mare parte înorat
 Vânt dela NNV
Vântul: NNV 7 km/h
Temperatura: 3°C
Wind Chill: 1°C
Punct de rouă: 2°C
Umiditate: 93%
Barometru: 1018 hPa
Clouds: In mare parte înorat
Visibility: 10 km
Cloud details: In mare parte înorat 427 m
2022/12/06 03:50 EKAH 060350Z AUTO 34004KT 9999 BKN014/// 03/02 Q1018
 
ESGT - Trollhattan (pvt, Sweden
Distance from station: E 255km
Ultima actualizare: 06/12/2022 04:50
Acoperit cu nori
Acoperit cu nori
 Vânt dela NNV
Vântul: NNV 6 km/h
Temperatura: -3°C
Punct de rouă: -4°C
Umiditate: 93%
Barometru: 1018 hPa
Clouds: Acoperit cu nori
Visibility: 10 km
Cloud details: Parțial înorat 183 m
In mare parte înorat 305 m
Acoperit cu nori 396 m
2022/12/06 03:50 ESGT 060350Z AUTO 33003KT 9999 R15///// R33///// SCT006/// BKN010/// OVC013/// M03/M04 Q1018
ESGG - Goteborg/Landvet, Sweden
Distance from station: E 257km
Ultima actualizare: 06/12/2022 04:50
Few Clouds
Few Clouds
 Vânt dela N
Vântul: N 7 km/h
Temperatura: -3°C
Wind Chill: -6°C
Punct de rouă: -4°C
Umiditate: 93%
Barometru: 1017 hPa
Clouds: Few Clouds
Visibility: 10 km
Cloud details: Few Clouds 701 m
2022/12/06 03:50 ESGG 060350Z 01004KT 9999 FEW023 M03/M04 Q1017
 
EKBI - Billund Airport, Denmark
Distance from station: SSE 269km
Ultima actualizare: 06/12/2022 04:50
Light snow, Acoperit cu nori
Light snow, Acoperit cu nori
 Vânt dela NNV
Vântul: NNV 11 km/h
Temperatura: 1°C
Wind Chill: -2°C
Punct de rouă: 1°C
Umiditate: 100%
Barometru: 1018 hPa
Sumar: Light Snow
Clouds: Acoperit cu nori
Visibility: 10 km
Cloud details: In mare parte înorat 122 m
Acoperit cu nori 792 m
2022/12/06 03:50 EKBI 060350Z AUTO 34006KT 9999 -SN BKN004/// OVC026/// 01/01 Q1018
EKHN - Horns Rev B Heli, Denmark
Distance from station: S 274km
Ultima actualizare: 09/08/2016 14:20
NOT Current
Few Clouds
Few Clouds
 Vânt dela VNV
Vântul: VNV 50 km/h, Vânt în rafale: 72 km/h
Temperatura: 14°C
Punct de rouă: 10°C
Umiditate: 77%
Barometru: 1018 hPa
Clouds: Few Clouds
Visibility: 10 km
Cloud details: Few Clouds 1158 m
Few Clouds 2438 m
2016/08/09 12:20 EKHN 091220Z AUTO 29027G39KT 270V340 9999NDV FEW038/// FEW080/// 14/10 Q1018
 
ESIB - Satenas (swe-Afb, Sweden
Distance from station: E 277km
Ultima actualizare: 06/12/2022 04:50
Few Clouds
Few Clouds
 Vânt dela N
Vântul: N 11 km/h
Temperatura: -3°C
Wind Chill: -7°C
Punct de rouă: -4°C
Umiditate: 93%
Barometru: 1017 hPa
Clouds: Few Clouds
Visibility: 10 km
Cloud details: Few Clouds 6401 m
2022/12/06 03:50 ESIB 060350Z AUTO 35006KT 9999 FEW210/// M03/M04 Q1017
EKHR - Horns Rev B Heli, Denmark
Distance from station: S 282km
Ultima actualizare: 04/10/2016 06:20
NOT Current
Senin
Senin
 Vânt dela E
Vântul: E 4 km/h
Temperatura: 11°C
Punct de rouă: -49°C
Umiditate: 0%
Barometru: 1038 hPa
Clouds: Senin
Visibility: 10 km
2016/10/04 04:20 EKHR 040420Z AUTO 08002KT 9999NDV NCD 11/M49 Q1038